Pagrindinis puslapis
METAR-TAF:

METAR-TAF

Oro uostai :

Mačala, Ekvadoras

platuma: 03-26-07S, ilguma: 079-58-40W, Aukštis: 52 m

Dabartinis oras

Ataskaita buvo paskelbta 1 valandą ir 30 minutes, ne 02:00 UTC
Ramus vėjas
Temperatūra 27°C
Drėgmė 84%
Slėgis 1007 hPa
Matomumas 10 km arba daugiau
Mažai debesys ne aukštis 1000 ft
Su prošvaistėmis ne aukštis 2000 ft
Su prošvaistėmis ne aukštis 7000 ft

METAR: SERO 170200Z 00000KT 9999 FEW010 BKN020 BKN070 27/24 Q1007

Laikas: 22:30 (03:30 UTC)


TAF: trūkstamas

Orai ataskaitas ir orų prognozės (METAR, TAF).

turimą stotys yra geltonos ir raudonos taškus žemėlapyje.

Perkelti pele per norėdami pamatyti stoties vardą.

Tada spustelėkite, norėdami matyti oro stebėjimo ir prognozės.

Norėdami pakeisti žemėlapį: spustelėkite ant žalios mygtukų su juodo kryžiaus žemyn,; žalią mygtuką su brūkšneliu, jei norite nutolinti; arba žalių rodyklių gretimoms žemėlapius.


METAR-TAF: